Time;durP1;ratioP1;P1;durP2;ratioP2;P2;SDS_P1;SDS_P2;PMS_P1;PMS_P2;Temp;Humidity;BMP_temperature;BMP_pressure;BME280_temperature;BME280_humidity;BME280_pressure;Samples;Min_cycle;Max_cycle;Signal;HPM_P1;HPM_P2
2022/06/29 00:00:15;;;;;;;6.18;4.45;;;;;;;17.45;71.69;100876.53;6229003;23;20103;-82
2022/06/29 00:02:43;;;;;;;7.30;4.18;;;;;;;17.47;72.29;100874.50;6229372;23;20032;-82
2022/06/29 00:05:13;;;;;;;5.75;4.35;;;;;;;17.40;72.16;100868.38;6226156;23;20021;-83
2022/06/29 00:07:40;;;;;;;5.80;3.95;;;;;;;17.37;72.89;100878.50;6222290;23;20099;-83
2022/06/29 00:10:08;;;;;;;6.97;4.32;;;;;;;17.33;72.42;100882.56;6221603;23;20131;-83
2022/06/29 00:12:35;;;;;;;6.57;4.47;;;;;;;17.30;72.93;100867.06;6221455;23;20021;-83
2022/06/29 00:15:03;;;;;;;6.28;4.22;;;;;;;17.35;72.15;100875.25;6218855;23;20044;-83
2022/06/29 00:17:31;;;;;;;6.40;4.50;;;;;;;17.36;72.34;100872.41;6218329;23;20025;-82
2022/06/29 00:19:58;;;;;;;8.68;4.75;;;;;;;17.35;72.83;100878.72;6217114;23;20021;-83
2022/06/29 00:22:26;;;;;;;4.97;4.32;;;;;;;17.28;73.56;100879.66;6218059;23;20524;-83
2022/06/29 00:24:53;;;;;;;5.18;4.43;;;;;;;17.29;74.06;100882.13;6218229;23;20406;-83
2022/06/29 00:27:20;;;;;;;5.93;4.68;;;;;;;17.25;73.80;100876.41;6218414;23;20021;-83
2022/06/29 00:29:47;;;;;;;6.43;4.40;;;;;;;17.22;73.74;100871.50;6224297;23;20027;-82
2022/06/29 00:32:14;;;;;;;6.45;4.10;;;;;;;17.19;73.54;100869.25;6219577;23;20036;-82
2022/06/29 00:34:41;;;;;;;5.72;4.28;;;;;;;17.12;74.37;100872.84;6219252;23;20025;-82
2022/06/29 00:37:08;;;;;;;6.22;4.20;;;;;;;17.08;74.09;100859.19;6221065;23;20025;-83
2022/06/29 00:39:37;;;;;;;9.00;4.10;;;;;;;17.18;74.51;100869.44;6220705;23;20290;-83
2022/06/29 00:42:04;;;;;;;6.18;4.18;;;;;;;17.08;74.13;100853.09;6225344;23;20043;-84
2022/06/29 00:44:31;;;;;;;6.22;4.90;;;;;;;17.11;74.55;100858.81;6222801;23;20021;-83
2022/06/29 00:46:59;;;;;;;7.22;4.03;;;;;;;17.12;74.85;100872.84;6217818;23;20032;-83
2022/06/29 00:49:28;;;;;;;6.65;4.40;;;;;;;17.07;75.03;100864.66;6217447;23;20466;-82
2022/06/29 00:52:02;;;;;;;5.82;4.10;;;;;;;17.11;74.93;100873.84;6217572;23;20052;-82
2022/06/29 00:54:35;;;;;;;6.57;4.38;;;;;;;17.08;75.69;100871.59;6225947;23;20030;-85
2022/06/29 00:57:07;;;;;;;6.43;4.30;;;;;;;17.01;75.83;100852.25;6228990;23;20025;-86
2022/06/29 00:59:38;;;;;;;10.13;4.30;;;;;;;17.02;76.55;100859.97;6227389;23;20024;-84
2022/06/29 01:02:06;;;;;;;5.55;4.38;;;;;;;17.12;76.89;100870.19;6226683;23;20020;-84
2022/06/29 01:04:33;;;;;;;5.40;4.00;;;;;;;16.98;76.81;100850.81;6224805;23;20021;-85
2022/06/29 01:07:00;;;;;;;7.65;4.43;;;;;;;17.00;76.94;100858.53;6229456;23;20051;-84
2022/06/29 01:09:26;;;;;;;8.63;4.10;;;;;;;16.85;77.38;100848.88;6231512;23;20016;-84
2022/06/29 01:11:53;;;;;;;6.10;4.03;;;;;;;16.85;77.80;100854.16;6231949;23;20029;-84
2022/06/29 01:14:21;;;;;;;6.85;4.25;;;;;;;16.79;78.33;100847.00;6232253;23;20020;-84
2022/06/29 01:16:48;;;;;;;8.43;4.40;;;;;;;16.76;77.83;100855.28;6231877;23;20079;-84
2022/06/29 01:19:15;;;;;;;5.03;4.38;;;;;;;16.66;78.01;100846.88;6232117;23;20024;-85
2022/06/29 01:21:44;;;;;;;6.28;4.32;;;;;;;16.70;77.84;100844.66;6228425;23;20068;-83
2022/06/29 01:24:12;;;;;;;4.95;3.88;;;;;;;16.63;77.90;100847.22;6228746;23;20303;-84
2022/06/29 01:26:38;;;;;;;7.82;4.28;;;;;;;16.69;77.49;100851.78;6230504;23;20029;-83
2022/06/29 01:29:05;;;;;;;5.85;4.20;;;;;;;16.58;77.75;100839.03;6229818;23;20024;-83
2022/06/29 01:31:32;;;;;;;6.63;4.32;;;;;;;16.62;78.11;100842.13;6227553;23;20024;-83
2022/06/29 01:34:02;;;;;;;6.13;4.43;;;;;;;16.58;78.85;100847.78;6230897;23;20017;-85
2022/06/29 01:36:29;;;;;;;6.68;4.53;;;;;;;16.44;78.86;100822.28;6223936;23;20020;-84
2022/06/29 01:38:55;;;;;;;5.93;4.30;;;;;;;16.37;78.99;100824.03;6229796;23;20207;-85
2022/06/29 01:41:23;;;;;;;7.35;4.07;;;;;;;16.49;79.29;100842.84;6232627;23;20103;-86
2022/06/29 01:43:50;;;;;;;8.88;4.10;;;;;;;16.36;80.00;100832.16;6231768;23;20032;-85
2022/06/29 01:46:17;;;;;;;7.85;4.38;;;;;;;16.34;80.20;100824.41;6230345;23;20032;-85
2022/06/29 01:48:43;;;;;;;5.82;4.30;;;;;;;16.37;80.18;100829.31;6232671;23;20024;-85
2022/06/29 01:51:10;;;;;;;6.13;4.10;;;;;;;16.34;80.03;100834.16;6235226;23;20021;-86
2022/06/29 01:53:37;;;;;;;8.45;4.75;;;;;;;16.24;79.92;100823.91;6235219;23;20028;-84
2022/06/29 01:56:04;;;;;;;6.03;4.30;;;;;;;16.18;80.52;100820.19;6236169;23;20020;-85
2022/06/29 01:58:32;;;;;;;6.85;4.55;;;;;;;16.00;81.59;100801.34;6235876;23;20024;-85
2022/06/29 02:00:58;;;;;;;8.30;4.80;;;;;;;16.00;81.44;100805.81;6236970;23;20039;-85
2022/06/29 02:03:29;;;;;;;7.60;4.35;;;;;;;15.98;81.01;100813.91;6233379;23;20116;-83
2022/06/29 02:06:05;;;;;;;7.40;4.70;;;;;;;15.81;81.48;100791.38;6231288;23;20024;-82
2022/06/29 02:08:36;;;;;;;6.75;4.75;;;;;;;15.92;81.71;100798.81;6233553;23;20071;-83
2022/06/29 02:11:15;;;;;;;;;;;;;;;;;;;;;
2022/06/29 02:16:59;;;;;;;8.60;4.70;;;;;;;15.98;81.79;100771.69;6231617;23;20076;-83
2022/06/29 02:22:14;;;;;;;5.30;4.50;;;;;;;16.19;81.50;100784.88;6222819;23;20055;-84
2022/06/29 02:24:41;;;;;;;10.15;4.97;;;;;;;16.15;81.69;100765.13;6225362;23;20016;-83
2022/06/29 02:27:08;;;;;;;8.30;4.63;;;;;;;16.39;80.87;100785.06;6223948;23;20028;-84
2022/06/29 02:29:36;;;;;;;8.63;4.75;;;;;;;16.43;80.49;100793.41;6223811;23;20020;-84
2022/06/29 02:34:47;;;;;;;6.20;4.78;;;;;;;16.37;80.90;100796.81;6222378;23;20102;-84
2022/06/29 02:37:15;;;;;;;7.57;4.70;;;;;;;16.16;82.10;100769.41;6222640;23;20116;-84
2022/06/29 02:39:43;;;;;;;6.63;4.90;;;;;;;16.20;81.84;100775.13;6221821;23;20021;-83
2022/06/29 02:42:11;;;;;;;7.88;4.85;;;;;;;16.02;82.25;100772.94;6224334;23;20040;-85
2022/06/29 02:44:40;;;;;;;7.70;4.75;;;;;;;16.06;83.57;100786.59;6167033;23;1102643;-78
2022/06/29 02:47:07;;;;;;;9.38;4.75;;;;;;;16.02;83.80;100804.63;6222498;23;20398;-81
2022/06/29 02:49:34;;;;;;;5.88;4.38;;;;;;;15.79;84.12;100798.66;6227449;23;20021;-81
2022/06/29 02:52:01;;;;;;;6.93;5.10;;;;;;;15.91;83.83;100802.47;6228000;23;20349;-80
2022/06/29 02:54:28;;;;;;;5.22;4.53;;;;;;;15.76;84.30;100797.22;6224150;23;20413;-79
2022/06/29 02:56:55;;;;;;;7.15;4.88;;;;;;;15.73;84.45;100794.13;6219476;23;20017;-80
2022/06/29 02:59:22;;;;;;;9.57;4.75;;;;;;;15.62;84.85;100781.41;6222691;23;20024;-80
2022/06/29 03:01:50;;;;;;;5.65;4.57;;;;;;;15.53;85.67;100778.88;6222974;23;20021;-81
2022/06/29 03:04:16;;;;;;;5.55;4.63;;;;;;;15.49;86.17;100788.16;6223008;23;20031;-81
2022/06/29 03:06:43;;;;;;;8.93;5.00;;;;;;;15.46;86.06;100783.25;6222078;23;20024;-81
2022/06/29 03:09:10;;;;;;;8.55;4.88;;;;;;;15.39;86.27;100782.34;6222790;23;20028;-81
2022/06/29 03:11:36;;;;;;;10.10;4.78;;;;;;;15.44;86.48;100787.88;6222190;23;20051;-81
2022/06/29 03:14:03;;;;;;;6.28;4.78;;;;;;;15.44;86.06;100789.69;6223885;23;20354;-80
2022/06/29 03:16:30;;;;;;;8.38;4.95;;;;;;;15.47;85.47;100799.88;6224104;23;20029;-81
2022/06/29 03:18:58;;;;;;;6.78;5.03;;;;;;;15.45;85.42;100781.59;6223147;23;20021;-83
2022/06/29 03:21:25;;;;;;;9.75;5.05;;;;;;;15.49;85.10;100790.78;6224424;23;20100;-82
2022/06/29 03:23:52;;;;;;;5.90;4.93;;;;;;;15.49;84.94;100790.78;6224165;23;20452;-81
2022/06/29 03:26:19;;;;;;;8.32;5.13;;;;;;;15.46;84.96;100788.50;6225607;23;20020;-80
2022/06/29 03:28:45;;;;;;;8.23;4.95;;;;;;;15.51;85.18;100793.25;6223434;23;20024;-81
2022/06/29 03:31:12;;;;;;;6.78;5.28;;;;;;;15.48;84.92;100791.78;6224158;23;20345;-80
2022/06/29 03:33:39;;;;;;;6.30;5.00;;;;;;;15.54;84.49;100793.69;6224302;23;20021;-80
2022/06/29 03:36:08;;;;;;;6.35;5.18;;;;;;;15.50;84.71;100776.59;6230508;23;20033;-80
2022/06/29 03:38:35;;;;;;;6.10;5.25;;;;;;;15.41;85.15;100764.50;6233215;23;20056;-80
2022/06/29 03:41:02;;;;;;;5.50;4.53;;;;;;;15.43;85.70;100764.34;6233580;23;20024;-80
2022/06/29 03:43:29;;;;;;;7.40;4.72;;;;;;;15.40;85.10;100773.44;6232500;23;20021;-81
2022/06/29 03:45:56;;;;;;;7.32;5.20;;;;;;;15.41;84.82;100766.34;6232840;23;20029;-80
2022/06/29 03:48:22;;;;;;;6.30;4.80;;;;;;;15.47;85.56;100757.69;6226784;23;20024;-82
2022/06/29 03:50:49;;;;;;;7.82;5.15;;;;;;;15.52;85.49;100758.78;6225747;23;20024;-82
2022/06/29 03:53:17;;;;;;;9.38;5.57;;;;;;;15.63;85.27;100757.47;6225002;23;20022;-82
2022/06/29 03:55:44;;;;;;;6.35;5.15;;;;;;;15.78;84.34;100757.44;6225499;23;20021;-82
2022/06/29 03:58:11;;;;;;;7.25;5.20;;;;;;;15.93;83.52;100774.06;6226895;23;20373;-81
2022/06/29 04:00:37;;;;;;;11.90;5.18;;;;;;;16.03;83.09;100766.66;6228779;23;20605;-81
2022/06/29 04:03:04;;;;;;;7.63;5.05;;;;;;;16.05;83.92;100756.72;6223878;23;20025;-81
2022/06/29 04:05:31;;;;;;;8.73;4.95;;;;;;;16.15;84.10;100761.66;6224454;23;20024;-81
2022/06/29 04:07:57;;;;;;;9.82;4.82;;;;;;;16.29;83.29;100773.19;6224800;23;20353;-80
2022/06/29 04:10:25;;;;;;;6.57;5.10;;;;;;;16.38;82.63;100779.97;6227897;23;20556;-81
2022/06/29 04:12:52;;;;;;;7.15;4.80;;;;;;;16.39;82.29;100779.78;6228862;23;20040;-82
2022/06/29 04:15:18;;;;;;;8.18;5.07;;;;;;;16.43;82.31;100781.03;6223974;23;20021;-80
2022/06/29 04:17:45;;;;;;;10.48;5.13;;;;;;;16.39;81.58;100769.22;6222396;23;20052;-80
2022/06/29 04:21:05;;;;;;;7.93;4.93;;;;;;;16.41;81.89;100774.31;6222344;23;20468;-81
2022/06/29 04:23:02;;;;;;;7.82;4.70;;;;;;;16.53;81.78;100778.06;6222146;23;20020;-81
2022/06/29 04:25:30;;;;;;;7.50;4.70;;;;;;;16.51;81.70;100774.81;6221674;23;20020;-81
2022/06/29 04:27:57;;;;;;;9.75;4.80;;;;;;;16.48;82.03;100768.06;6223038;23;20081;-80
2022/06/29 04:30:24;;;;;;;7.95;4.68;;;;;;;16.44;82.06;100766.81;6224535;23;20024;-82
2022/06/29 04:32:50;;;;;;;8.55;4.85;;;;;;;16.36;82.70;100750.28;6226931;23;20031;-82
2022/06/29 04:35:17;;;;;;;8.07;4.80;;;;;;;16.35;83.10;100762.69;6224506;23;20021;-82
2022/06/29 04:37:44;;;;;;;10.32;4.82;;;;;;;16.37;82.46;100765.13;6226067;23;20349;-83
2022/06/29 04:40:12;;;;;;;9.77;5.90;;;;;;;16.41;81.43;100766.38;6226540;23;20036;-82
2022/06/29 04:42:39;;;;;;;9.15;5.25;;;;;;;16.60;81.18;100761.22;6227749;23;20013;-82
2022/06/29 04:46:19;;;;;;;11.40;5.38;;;;;;;16.75;81.00;100765.66;6232650;23;20016;-83
2022/06/29 04:47:54;;;;;;;10.82;5.43;;;;;;;16.94;80.03;100761.50;6231960;23;20055;-82
2022/06/29 04:50:21;;;;;;;7.57;4.90;;;;;;;17.11;79.45;100754.88;6231848;23;20028;-81
2022/06/29 04:52:48;;;;;;;12.38;4.90;;;;;;;17.10;79.62;100767.28;6233269;23;20091;-80
2022/06/29 04:55:14;;;;;;;10.68;5.20;;;;;;;17.16;79.58;100769.16;6232116;23;20028;-81
2022/06/29 04:57:42;;;;;;;10.25;5.20;;;;;;;17.12;79.32;100775.00;6233626;23;20036;-82
2022/06/29 05:00:10;;;;;;;9.75;5.13;;;;;;;17.17;79.71;100772.59;6232335;23;20076;-82
2022/06/29 05:02:37;;;;;;;12.73;5.13;;;;;;;17.29;79.15;100767.59;6232021;23;20067;-82
2022/06/29 05:05:04;;;;;;;10.68;5.50;;;;;;;17.38;78.40;100771.69;6230095;23;20048;-82
2022/06/29 05:07:31;;;;;;;8.65;4.88;;;;;;;17.42;78.57;100771.13;6228516;23;20029;-81
2022/06/29 05:09:57;;;;;;;9.25;5.55;;;;;;;17.34;78.03;100775.75;6228835;23;20051;-81
2022/06/29 05:12:24;;;;;;;7.68;5.57;;;;;;;17.35;79.33;100770.25;6227533;23;20028;-81
2022/06/29 05:14:52;;;;;;;10.25;5.68;;;;;;;17.37;79.79;100773.53;6223867;23;20024;-81
2022/06/29 05:17:19;;;;;;;11.65;5.40;;;;;;;17.32;79.65;100773.31;6224349;23;20024;-81
2022/06/29 05:19:46;;;;;;;10.63;5.60;;;;;;;17.40;79.01;100782.91;6224228;23;20043;-81
2022/06/29 05:22:13;;;;;;;12.15;5.75;;;;;;;17.36;78.30;100784.31;6224117;23;20037;-81
2022/06/29 05:24:40;;;;;;;12.65;5.75;;;;;;;17.57;78.09;100792.94;6223176;23;20017;-81
2022/06/29 05:27:06;;;;;;;15.27;6.82;;;;;;;17.67;77.93;100807.66;6224149;23;20473;-81
2022/06/29 05:29:33;;;;;;;13.52;6.25;;;;;;;17.65;77.38;100791.13;6225600;23;20025;-83
2022/06/29 05:32:01;;;;;;;15.70;6.78;;;;;;;17.61;77.36;100789.88;6232091;23;20059;-82
2022/06/29 05:34:28;;;;;;;11.50;7.05;;;;;;;17.59;75.92;100777.66;6231166;23;20020;-82
2022/06/29 05:36:54;;;;;;;13.90;7.45;;;;;;;17.58;76.10;100777.88;6231711;23;20024;-82
2022/06/29 05:39:21;;;;;;;15.45;6.80;;;;;;;17.61;76.50;100774.81;6228782;23;20496;-82
2022/06/29 05:41:47;;;;;;;13.18;7.03;;;;;;;17.58;76.87;100773.41;6227848;23;20044;-81
2022/06/29 05:44:14;;;;;;;8.55;6.80;;;;;;;17.37;77.57;100762.94;6231521;23;20050;-82
2022/06/29 05:46:41;;;;;;;14.00;7.93;;;;;;;17.33;78.39;100761.72;6227839;23;20039;-82
2022/06/29 05:49:09;;;;;;;12.07;7.80;;;;;;;17.32;78.52;100761.91;6227975;23;20024;-80
2022/06/29 05:51:36;;;;;;;15.40;7.53;;;;;;;17.29;78.54;100754.34;6224404;23;20024;-80
2022/06/29 05:54:02;;;;;;;14.20;7.97;;;;;;;17.42;79.16;100767.66;6225752;23;20027;-82
2022/06/29 05:56:29;;;;;;;13.90;8.40;;;;;;;17.46;79.23;100763.59;6226442;23;20024;-79
2022/06/29 05:58:56;;;;;;;12.73;8.45;;;;;;;17.39;79.13;100755.63;6225377;23;20008;-82
2022/06/29 06:01:22;;;;;;;14.13;8.35;;;;;;;17.49;78.94;100756.06;6223324;23;20020;-80
2022/06/29 06:03:49;;;;;;;13.10;9.15;;;;;;;17.61;78.60;100760.78;6226182;23;20032;-80
2022/06/29 06:06:17;;;;;;;15.77;8.38;;;;;;;17.77;78.08;100755.16;6222767;23;20078;-82
2022/06/29 06:08:44;;;;;;;11.45;9.13;;;;;;;17.97;76.86;100763.13;6223968;23;20059;-81
2022/06/29 06:11:10;;;;;;;12.32;8.90;;;;;;;18.10;77.26;100758.69;6225145;23;20024;-81
2022/06/29 06:13:37;;;;;;;12.50;8.82;;;;;;;18.21;75.82;100763.38;6230350;23;20021;-83
2022/06/29 06:16:05;;;;;;;18.13;9.13;;;;;;;18.24;75.47;100768.28;6231394;23;20103;-80
2022/06/29 06:18:32;;;;;;;16.17;9.13;;;;;;;18.12;74.42;100761.13;6230322;23;20024;-81
2022/06/29 06:20:58;;;;;;;15.35;9.07;;;;;;;18.06;75.67;100748.69;6230981;23;20044;-81
2022/06/29 06:23:26;;;;;;;13.50;8.60;;;;;;;18.15;76.31;100750.94;6229639;23;20035;-81
2022/06/29 06:25:53;;;;;;;12.18;8.07;;;;;;;18.34;76.61;100759.13;6229519;23;20247;-79
2022/06/29 06:28:20;;;;;;;11.48;8.10;;;;;;;18.25;77.13;100755.84;6231373;23;20021;-82
2022/06/29 06:30:46;;;;;;;12.07;8.30;;;;;;;18.52;76.71;100761.94;6234230;23;20025;-81
2022/06/29 06:33:13;;;;;;;12.63;7.68;;;;;;;18.63;75.09;100753.41;6232166;23;20025;-80
2022/06/29 06:35:40;;;;;;;10.75;6.95;;;;;;;18.58;73.89;100758.47;6233488;23;20021;-81
2022/06/29 06:38:06;;;;;;;16.05;6.90;;;;;;;18.73;74.02;100758.31;6233087;23;20350;-82
2022/06/29 06:43:19;;;;;;;8.85;6.47;;;;;;;18.73;74.31;100750.34;6226943;23;20090;-81
2022/06/29 06:45:45;;;;;;;15.73;6.80;;;;;;;18.57;75.54;100748.91;6225563;23;20016;-82
2022/06/29 06:48:15;;;;;;;9.60;6.70;;;;;;;18.59;76.01;100754.81;6225071;23;20075;-81
2022/06/29 06:50:42;;;;;;;17.05;7.25;;;;;;;18.40;77.42;100760.97;6227666;23;20028;-81
2022/06/29 06:53:08;;;;;;;7.15;6.13;;;;;;;18.50;77.31;100761.34;6228879;23;20043;-80
2022/06/29 06:55:36;;;;;;;8.88;6.22;;;;;;;18.47;77.62;100754.59;6228235;23;20025;-80
2022/06/29 06:58:03;;;;;;;8.95;6.55;;;;;;;18.63;77.08;100749.94;6226182;23;20032;-81
2022/06/29 07:00:30;;;;;;;9.73;5.93;;;;;;;18.62;75.75;100758.94;6224234;23;20021;-81
2022/06/29 07:02:57;;;;;;;10.38;5.97;;;;;;;18.70;75.36;100748.94;6224678;23;20021;-80
2022/06/29 07:05:25;;;;;;;9.65;6.18;;;;;;;18.72;74.58;100754.84;6220499;23;20047;-79
2022/06/29 07:07:52;;;;;;;12.13;6.45;;;;;;;18.82;75.14;100763.19;6218481;23;20093;-79
2022/06/29 07:10:18;;;;;;;12.00;6.40;;;;;;;18.78;74.94;100750.56;6220291;23;20063;-81
2022/06/29 07:12:46;;;;;;;10.10;6.80;;;;;;;18.75;74.57;100756.25;6222724;23;20024;-79
2022/06/29 07:15:13;;;;;;;11.90;7.50;;;;;;;18.71;74.64;100758.50;6220596;23;20027;-79
2022/06/29 07:17:40;;;;;;;11.85;6.93;;;;;;;18.68;74.31;100753.63;6225740;23;20024;-79
2022/06/29 07:20:08;;;;;;;13.68;6.88;;;;;;;18.83;74.22;100751.56;6224927;23;20028;-80
2022/06/29 07:22:34;;;;;;;9.35;7.00;;;;;;;18.99;73.55;100758.25;6226163;23;20060;-81
2022/06/29 07:25:01;;;;;;;11.80;6.35;;;;;;;19.21;72.51;100754.31;6226101;23;20026;-81
2022/06/29 07:27:28;;;;;;;13.20;6.25;;;;;;;19.32;70.32;100752.84;6227382;23;20074;-80
2022/06/29 07:29:56;;;;;;;10.88;6.50;;;;;;;19.44;71.25;100751.13;6223911;23;20024;-80
2022/06/29 07:32:22;;;;;;;10.38;6.35;;;;;;;19.32;70.34;100746.72;6224426;23;20024;-82
2022/06/29 07:34:49;;;;;;;9.68;5.43;;;;;;;19.49;70.57;100747.84;6225389;23;20277;-81
2022/06/29 07:37:16;;;;;;;13.00;5.88;;;;;;;19.62;69.41;100765.59;6222133;23;20024;-81
2022/06/29 07:39:43;;;;;;;10.50;5.63;;;;;;;19.71;68.76;100761.69;6221036;23;20025;-79
2022/06/29 07:42:09;;;;;;;9.25;5.72;;;;;;;19.75;68.65;100784.94;6221730;23;20078;-79
2022/06/29 07:44:36;;;;;;;8.93;5.60;;;;;;;19.85;68.58;100752.59;6224267;23;20025;-83
2022/06/29 07:47:05;;;;;;;7.78;5.07;;;;;;;19.95;68.69;100752.94;6229035;23;20075;-82
2022/06/29 07:49:31;;;;;;;8.55;5.85;;;;;;;20.04;67.76;100762.28;6227469;23;20039;-81
2022/06/29 07:51:58;;;;;;;7.40;5.50;;;;;;;20.04;67.35;100751.66;6229808;23;20027;-82
2022/06/29 07:54:25;;;;;;;9.25;5.57;;;;;;;20.02;66.38;100751.06;6229621;23;20025;-83
2022/06/29 07:56:51;;;;;;;12.02;5.40;;;;;;;19.95;65.41;100744.97;6229459;23;20028;-82
2022/06/29 07:59:18;;;;;;;12.38;5.53;;;;;;;19.59;65.06;100750.91;6225825;23;20494;-81
2022/06/29 08:01:44;;;;;;;7.38;5.00;;;;;;;19.38;66.78;100741.38;6225094;23;20024;-80
2022/06/29 08:04:12;;;;;;;9.82;4.95;;;;;;;19.42;68.03;100747.88;6224886;23;20102;-82
2022/06/29 08:06:39;;;;;;;9.80;5.40;;;;;;;19.39;67.74;100750.94;6224446;23;20055;-81
2022/06/29 08:09:06;;;;;;;10.50;5.05;;;;;;;19.30;67.91;100748.78;6225478;23;20371;-81
2022/06/29 08:11:32;;;;;;;7.20;5.35;;;;;;;19.35;67.91;100746.31;6224069;23;20048;-79
2022/06/29 08:13:59;;;;;;;8.10;5.15;;;;;;;19.39;67.60;100743.00;6225224;23;20035;-80
2022/06/29 08:16:26;;;;;;;9.45;5.13;;;;;;;19.42;67.27;100747.06;6224238;23;20044;-82
2022/06/29 08:18:52;;;;;;;9.52;5.50;;;;;;;19.53;67.98;100744.59;6230326;23;20028;-82
2022/06/29 08:21:20;;;;;;;9.43;4.88;;;;;;;19.81;67.99;100751.41;6233766;23;20025;-82
2022/06/29 08:23:48;;;;;;;6.47;4.97;;;;;;;19.81;68.22;100757.53;6233346;23;20035;-82
2022/06/29 08:26:14;;;;;;;10.05;5.45;;;;;;;20.01;69.04;100762.69;6232508;23;20016;-83
2022/06/29 08:28:41;;;;;;;11.48;5.22;;;;;;;20.09;67.77;100757.13;6231433;23;20082;-83
2022/06/29 08:31:08;;;;;;;14.93;5.13;;;;;;;20.12;67.62;100754.03;6228078;23;20024;-81
2022/06/29 08:33:34;;;;;;;14.65;5.28;;;;;;;20.08;67.04;100752.84;6228397;23;20028;-83
2022/06/29 08:36:01;;;;;;;7.97;4.95;;;;;;;20.23;67.48;100757.03;6233484;23;20055;-82
2022/06/29 08:38:29;;;;;;;7.80;4.60;;;;;;;20.26;67.81;100759.28;6232898;23;20025;-82
2022/06/29 08:40:57;;;;;;;6.25;4.60;;;;;;;20.34;66.09;100758.97;6233241;23;20025;-83
2022/06/29 08:54:26;;;;;;;13.57;5.75;;;;;;;20.28;63.20;100727.97;6214435;23;19974;-80
2022/06/29 08:57:01;;;;;;;9.88;5.40;;;;;;;20.08;63.58;100741.41;6222221;23;20450;-82
2022/06/29 08:59:30;;;;;;;7.70;4.60;;;;;;;19.92;64.12;100752.53;6219600;23;20027;-80
2022/06/29 09:01:59;;;;;;;8.20;4.90;;;;;;;19.84;64.17;100756.28;6219724;23;20024;-82
2022/06/29 09:04:26;;;;;;;11.00;4.90;;;;;;;19.98;64.42;100763.13;6219306;23;20059;-85
2022/06/29 09:06:54;;;;;;;7.22;4.53;;;;;;;19.95;63.92;100746.81;6220009;23;20021;-81
2022/06/29 09:09:22;;;;;;;6.43;4.75;;;;;;;20.33;63.70;100750.19;6219574;23;20024;-81
2022/06/29 09:11:51;;;;;;;9.30;4.72;;;;;;;20.68;63.01;100774.47;6220076;23;20024;-79
2022/06/29 09:14:20;;;;;;;8.70;4.80;;;;;;;20.85;63.46;100764.88;6221422;23;20021;-81
2022/06/29 09:16:57;;;;;;;7.75;4.88;;;;;;;21.06;61.68;100766.31;6222347;23;20409;-81
2022/06/29 09:19:27;;;;;;;8.15;4.55;;;;;;;21.12;61.59;100775.25;6222300;23;20025;-80
2022/06/29 09:21:56;;;;;;;13.77;4.93;;;;;;;20.95;61.09;100772.34;6224906;23;20025;-80
2022/06/29 09:24:24;;;;;;;18.92;4.90;;;;;;;21.20;60.78;100781.09;6224554;23;20021;-81
2022/06/29 09:26:53;;;;;;;7.35;4.20;;;;;;;21.28;59.92;100781.84;6229789;23;20020;-80
2022/06/29 09:29:21;;;;;;;7.38;4.30;;;;;;;21.23;60.32;100781.72;6241937;23;20032;-83
2022/06/29 09:32:09;;;;;;;7.43;4.38;;;;;;;21.44;61.04;100792.72;6242173;23;20008;-84
2022/06/29 09:34:37;;;;;;;8.65;4.80;;;;;;;21.64;58.40;100796.97;6232626;23;20096;-81
2022/06/29 09:37:06;;;;;;;6.88;4.53;;;;;;;21.59;58.55;100787.00;6221981;23;20025;-81
2022/06/29 09:39:34;;;;;;;7.65;4.75;;;;;;;21.88;59.01;100785.38;6220862;23;20020;-81
2022/06/29 09:42:03;;;;;;;8.52;4.20;;;;;;;22.12;58.65;100792.44;6221166;23;20025;-81
2022/06/29 09:44:30;;;;;;;9.38;4.47;;;;;;;22.36;56.34;100781.81;6223178;23;20025;-81
2022/06/29 09:46:58;;;;;;;9.43;4.45;;;;;;;22.00;55.04;100777.41;6223830;23;20414;-84
2022/06/29 09:49:26;;;;;;;6.75;4.30;;;;;;;23.20;53.77;100779.72;6229527;23;20028;-83
2022/06/29 09:51:56;;;;;;;6.63;4.20;;;;;;;23.42;51.67;100778.84;6231062;23;20051;-83
2022/06/29 09:54:28;;;;;;;8.65;4.28;;;;;;;23.20;51.81;100779.72;6230255;23;20039;-82
2022/06/29 09:56:58;;;;;;;12.27;3.80;;;;;;;24.26;51.20;100788.97;6228996;23;20017;-84
2022/06/29 10:02:37;;;;;;;5.80;4.30;;;;;;;24.23;48.46;100768.03;6230931;23;20027;-81
2022/06/29 10:05:12;;;;;;;7.22;4.22;;;;;;;25.45;46.78;100775.94;6224653;23;20026;-79
2022/06/29 10:07:41;;;;;;;10.10;4.38;;;;;;;24.75;45.56;100768.59;6225458;23;20353;-80
2022/06/29 10:10:09;;;;;;;8.32;4.03;;;;;;;25.64;45.34;100774.56;6224651;23;20130;-81
2022/06/29 10:16:23;;;;;;;8.63;4.18;;;;;;;25.19;47.00;100764.09;6221556;23;20030;-79
2022/06/29 10:19:25;;;;;;;5.35;3.88;;;;;;;24.81;45.15;100757.72;6221377;23;20469;-80
2022/06/29 10:21:52;;;;;;;5.93;3.70;;;;;;;25.11;44.92;100769.91;6219914;23;20032;-79
2022/06/29 10:24:21;;;;;;;7.32;4.18;;;;;;;25.57;45.79;100763.19;6219477;23;20048;-79
2022/06/29 10:26:48;;;;;;;5.93;3.72;;;;;;;25.25;44.03;100763.13;6221778;23;20028;-82
2022/06/29 10:29:32;;;;;;;10.40;3.90;;;;;;;25.76;42.65;100769.88;6226151;23;20076;-84
2022/06/29 10:32:20;;;;;;;7.80;3.90;;;;;;;25.50;41.71;100754.56;6230275;23;20055;-80
2022/06/29 10:37:32;;;;;;;4.55;3.92;;;;;;;25.58;42.70;100759.47;6225288;23;20028;-79
2022/06/29 10:40:05;;;;;;;11.07;3.90;;;;;;;26.01;43.15;100760.44;6223550;23;20025;-79
2022/06/29 10:45:34;;;;;;;5.70;4.00;;;;;;;26.20;44.26;100745.59;6223506;23;20031;-80
2022/06/29 10:48:16;;;;;;;4.45;3.65;;;;;;;26.32;41.32;100764.22;6224142;23;20021;-79
2022/06/29 10:50:45;;;;;;;6.50;3.92;;;;;;;26.32;41.45;100756.97;6221492;23;20404;-80
2022/06/29 10:53:13;;;;;;;5.53;4.10;;;;;;;26.48;42.14;100760.56;6220515;23;20036;-82
2022/06/29 10:55:42;;;;;;;9.30;3.90;;;;;;;27.28;41.29;100759.41;6220865;23;20027;-81
2022/06/29 10:58:09;;;;;;;5.57;3.95;;;;;;;27.65;37.56;100759.25;6221186;23;20078;-82
2022/06/29 11:00:39;;;;;;;5.60;4.00;;;;;;;27.24;38.80;100742.19;6221138;23;20020;-79
2022/06/29 11:03:16;;;;;;;8.15;4.03;;;;;;;26.86;41.58;100738.00;6220458;23;20402;-81
2022/06/29 11:16:53;;;;;;;10.98;4.20;;;;;;;25.75;37.69;100716.53;6207383;23;20449;-81
2022/06/29 11:19:28;;;;;;;5.70;4.57;;;;;;;26.33;37.49;100725.59;6220843;23;20067;-81
2022/06/29 11:22:08;;;;;;;7.28;4.85;;;;;;;26.33;38.36;100710.31;6220630;23;20024;-82
2022/06/29 11:24:57;;;;;;;10.38;5.78;;;;;;;25.82;39.56;100709.09;6220860;23;20111;-81
2022/06/29 11:27:35;;;;;;;8.45;5.18;;;;;;;25.95;39.07;100707.84;6220456;23;20020;-82
2022/06/29 11:30:01;;;;;;;12.23;5.20;;;;;;;26.00;39.04;100699.81;6221223;23;20021;-82
2022/06/29 11:32:35;;;;;;;13.98;5.13;;;;;;;25.99;40.93;100704.41;6221173;23;20083;-80
2022/06/29 11:35:04;;;;;;;7.55;5.05;;;;;;;25.41;42.34;100689.91;6222722;23;20080;-81
2022/06/29 11:37:30;;;;;;;9.95;4.82;;;;;;;26.34;41.06;100700.38;6223092;23;20020;-81
2022/06/29 11:39:59;;;;;;;14.70;5.20;;;;;;;25.82;40.62;100693.00;6224911;23;20426;-81
2022/06/29 11:45:15;;;;;;;10.55;4.90;;;;;;;27.29;38.65;100696.53;6221515;23;20043;-82
2022/06/29 11:47:50;;;;;;;8.43;4.85;;;;;;;26.91;37.01;100691.56;6221839;23;20076;-80
2022/06/29 11:50:19;;;;;;;7.75;5.00;;;;;;;26.69;37.25;100683.66;6222438;23;20032;-80
2022/06/29 11:52:47;;;;;;;6.30;4.80;;;;;;;26.54;38.57;100686.28;6222132;23;20083;-81
2022/06/29 11:55:16;;;;;;;7.93;4.85;;;;;;;26.36;39.21;100671.44;6220763;23;20025;-83
2022/06/29 11:57:46;;;;;;;8.13;4.95;;;;;;;27.04;38.35;100669.59;6223235;23;20025;-84
2022/06/29 12:00:25;;;;;;;8.68;5.47;;;;;;;26.81;40.30;100662.78;6221584;23;20032;-83
2022/06/29 12:03:01;;;;;;;7.53;5.30;;;;;;;27.25;40.42;100657.03;6222635;23;20020;-82
2022/06/29 12:05:29;;;;;;;8.93;5.45;;;;;;;27.32;39.55;100647.66;6221384;23;20482;-80
2022/06/29 12:07:58;;;;;;;9.73;5.22;;;;;;;27.23;39.38;100643.88;6221512;23;20028;-81
2022/06/29 12:10:25;;;;;;;8.98;4.63;;;;;;;27.02;40.51;100634.16;6222832;23;20064;-81
2022/06/29 12:12:51;;;;;;;10.70;5.45;;;;;;;27.57;39.51;100656.81;6222249;23;20027;-82
2022/06/29 12:15:18;;;;;;;7.18;4.25;;;;;;;27.26;37.78;100635.28;6222954;23;20028;-81
2022/06/29 12:17:45;;;;;;;7.40;4.40;;;;;;;26.95;38.57;100644.28;6222262;23;20414;-82